createdAt,value
2023-02-09T00:00:49.220Z,16.50
2023-02-09T00:05:50.681Z,18.00
2023-02-09T00:10:52.143Z,15.15
2023-02-09T00:16:01.713Z,19.58
2023-02-09T00:21:09.378Z,16.67
2023-02-09T00:26:11.272Z,15.48
2023-02-09T00:31:12.915Z,16.65
2023-02-09T00:36:14.524Z,14.82
2023-02-09T00:41:16.022Z,17.00
2023-02-09T00:46:17.628Z,15.32
2023-02-09T00:51:19.113Z,19.77
2023-02-09T00:56:20.628Z,20.30
2023-02-09T01:01:22.133Z,18.60
2023-02-09T01:06:23.648Z,18.13
2023-02-09T01:11:28.036Z,13.82
2023-02-09T01:16:31.377Z,17.08
2023-02-09T01:21:33.060Z,18.35
2023-02-09T01:26:34.591Z,11.75
2023-02-09T01:31:36.189Z,13.90
2023-02-09T01:36:37.734Z,16.58
2023-02-09T01:41:39.433Z,19.17
2023-02-09T01:46:40.882Z,17.40
2023-02-09T01:52:01.206Z,16.45
2023-02-09T01:57:05.758Z,14.13
2023-02-09T02:02:07.245Z,18.90
2023-02-09T02:07:15.254Z,15.73
2023-02-09T02:12:16.717Z,14.20
2023-02-09T02:17:45.785Z,14.38
2023-02-09T02:22:52.850Z,14.90
2023-02-09T02:28:32.263Z,17.05
2023-02-09T02:33:39.601Z,14.73
2023-02-09T02:39:16.144Z,17.00
2023-02-09T02:44:17.607Z,17.77
2023-02-09T02:49:26.889Z,13.40
2023-02-09T02:54:29.706Z,13.38
2023-02-09T02:59:32.902Z,12.50
2023-02-09T03:04:34.362Z,14.57
2023-02-09T03:09:35.827Z,10.38
2023-02-09T03:14:43.025Z,12.88
2023-02-09T03:19:52.315Z,13.95
2023-02-09T03:24:58.192Z,16.00
2023-02-09T03:30:00.902Z,13.95
2023-02-09T03:35:02.382Z,11.80
2023-02-09T03:40:03.945Z,12.90
2023-02-09T03:45:07.929Z,12.52
2023-02-09T03:50:09.968Z,14.27
2023-02-09T03:55:11.415Z,12.43
2023-02-09T04:00:13.454Z,15.35
2023-02-09T04:05:14.907Z,14.73
2023-02-09T04:10:16.554Z,15.57
2023-02-09T04:15:18.093Z,16.30
2023-02-09T04:20:20.591Z,13.02
2023-02-09T04:25:22.079Z,15.48
2023-02-09T04:30:23.541Z,15.07
2023-02-09T04:35:25.049Z,15.77
2023-02-09T04:40:26.549Z,14.38
2023-02-09T04:45:28.046Z,16.75
2023-02-09T04:50:29.518Z,16.10
2023-02-09T04:55:30.983Z,18.20
2023-02-09T05:00:32.521Z,16.13
2023-02-09T05:05:33.980Z,13.20
2023-02-09T05:10:35.435Z,14.65
2023-02-09T05:15:36.897Z,15.45
2023-02-09T05:20:38.394Z,15.63
2023-02-09T05:25:39.971Z,16.02
2023-02-09T05:30:41.528Z,17.83
2023-02-09T05:35:43.007Z,19.98
2023-02-09T05:40:45.320Z,17.52
2023-02-09T05:45:46.910Z,16.40
2023-02-09T05:50:48.513Z,16.90
2023-02-09T05:55:50.014Z,16.20
2023-02-09T06:00:51.462Z,19.10
2023-02-09T06:05:52.909Z,17.92
2023-02-09T06:10:54.363Z,16.85
2023-02-09T06:15:55.846Z,20.70
2023-02-09T06:20:57.907Z,17.60
2023-02-09T06:25:59.382Z,15.40
2023-02-09T06:31:00.984Z,13.60
2023-02-09T06:36:02.529Z,17.05
2023-02-09T06:41:04.798Z,19.83
2023-02-09T06:46:09.998Z,19.02
2023-02-09T06:51:12.871Z,21.80
2023-02-09T06:56:14.619Z,17.92
2023-02-09T07:01:16.230Z,18.90
2023-02-09T07:06:18.620Z,16.77
2023-02-09T07:11:20.181Z,14.25
2023-02-09T07:16:21.784Z,23.77
2023-02-09T07:21:23.404Z,16.35
2023-02-09T07:26:24.918Z,15.77
2023-02-09T07:31:27.262Z,20.45
2023-02-09T07:36:28.837Z,18.50
2023-02-09T07:41:30.571Z,20.27
2023-02-09T07:46:32.079Z,19.33
2023-02-09T07:51:34.398Z,23.00
2023-02-09T07:56:35.931Z,17.35
2023-02-09T08:01:37.426Z,18.70
2023-02-09T08:06:42.999Z,14.90
2023-02-09T08:11:58.858Z,19.20
2023-02-09T08:17:24.289Z,17.40
2023-02-09T08:22:27.343Z,19.75
2023-02-09T08:27:28.855Z,19.73
2023-02-09T08:32:30.318Z,16.73
2023-02-09T08:37:31.770Z,18.02
2023-02-09T08:42:33.218Z,21.95
2023-02-09T08:47:34.692Z,18.83
2023-02-09T08:52:36.172Z,18.25
2023-02-09T08:57:44.037Z,20.45
2023-02-09T09:02:46.168Z,19.77
2023-02-09T09:07:48.210Z,19.70
2023-02-09T09:12:49.738Z,19.27
2023-02-09T09:17:51.200Z,21.17
2023-02-09T09:22:52.694Z,18.10
2023-02-09T09:27:54.185Z,27.58
2023-02-09T09:32:55.725Z,23.80
2023-02-09T09:37:58.421Z,18.02
2023-02-09T09:43:07.648Z,20.95
2023-02-09T09:48:25.926Z,23.02
2023-02-09T09:53:33.161Z,21.60
2023-02-09T09:58:35.120Z,26.52
2023-02-09T10:03:36.577Z,19.73
2023-02-09T10:08:46.105Z,30.75
2023-02-09T10:13:55.128Z,32.70
2023-02-09T10:18:57.952Z,23.30
2023-02-09T10:24:02.030Z,22.40
2023-02-09T10:29:12.691Z,27.10
2023-02-09T10:34:18.619Z,22.45
2023-02-09T10:39:23.552Z,23.85
2023-02-09T10:44:27.169Z,23.88
2023-02-09T10:49:30.794Z,24.05
2023-02-09T10:54:32.260Z,30.42
2023-02-09T10:59:34.004Z,29.13
2023-02-09T11:04:39.548Z,27.77
2023-02-09T11:09:44.458Z,26.60
2023-02-09T11:14:45.936Z,24.55
2023-02-09T11:20:12.135Z,28.70
2023-02-09T11:25:22.254Z,28.60
2023-02-09T11:30:54.674Z,26.17
2023-02-09T11:36:15.550Z,26.88
2023-02-09T11:41:41.276Z,29.83
2023-02-09T11:46:42.786Z,36.08
2023-02-09T11:51:44.297Z,32.50
2023-02-09T11:56:49.929Z,29.75
2023-02-09T12:02:01.911Z,26.75
2023-02-09T12:07:14.644Z,27.15
2023-02-09T12:12:18.939Z,30.25
2023-02-09T12:17:28.345Z,30.05
2023-02-09T12:22:35.484Z,32.30
2023-02-09T12:27:38.895Z,31.67
2023-02-09T12:32:43.876Z,29.00
2023-02-09T12:38:15.702Z,31.48
2023-02-09T12:43:27.655Z,31.85
2023-02-09T12:48:29.112Z,29.80
2023-02-09T12:53:34.739Z,36.80
2023-02-09T12:58:44.857Z,31.45
2023-02-09T13:04:03.634Z,34.55
2023-02-09T13:09:07.407Z,34.67
2023-02-09T13:14:11.556Z,36.92
2023-02-09T13:19:36.363Z,39.60
2023-02-09T13:25:09.742Z,31.88
2023-02-09T13:30:25.137Z,37.35
2023-02-09T13:35:28.612Z,34.97
2023-02-09T13:40:31.257Z,31.48
2023-02-09T13:45:32.787Z,34.40
2023-02-09T13:50:34.253Z,30.45
2023-02-09T13:55:37.752Z,37.35
2023-02-09T14:00:59.491Z,30.95
2023-02-09T14:06:44.300Z,37.15
2023-02-09T14:11:49.782Z,34.25
2023-02-09T14:17:25.184Z,43.30
2023-02-09T14:22:37.998Z,37.10
2023-02-09T14:27:39.554Z,35.28
2023-02-09T14:32:45.156Z,34.05
2023-02-09T14:37:46.728Z,35.17
2023-02-09T14:43:19.831Z,40.30
2023-02-09T14:48:22.721Z,38.55
2023-02-09T14:53:25.616Z,39.15
2023-02-09T14:58:28.652Z,30.48
2023-02-09T15:03:30.149Z,35.15
2023-02-09T15:08:34.388Z,33.60
2023-02-09T15:13:35.888Z,34.47
2023-02-09T15:18:40.332Z,37.92
2023-02-09T15:23:42.760Z,38.80
2023-02-09T15:28:44.424Z,41.72
2023-02-09T15:33:45.892Z,36.13
2023-02-09T15:38:47.371Z,37.75
2023-02-09T15:44:07.246Z,33.55
2023-02-09T15:49:08.744Z,33.28
2023-02-09T15:54:17.944Z,31.60
2023-02-09T15:59:21.095Z,30.83
2023-02-09T16:09:26.756Z,36.97
2023-02-09T16:14:28.559Z,30.55
2023-02-09T16:19:30.122Z,37.05
2023-02-09T16:24:41.319Z,35.47
2023-02-09T16:29:42.872Z,40.03
2023-02-09T16:34:44.500Z,32.40
2023-02-09T16:39:45.954Z,43.70
2023-02-09T16:44:47.434Z,38.58
2023-02-09T16:49:57.585Z,32.45
2023-02-09T16:55:00.770Z,33.30
2023-02-09T17:05:21.834Z,30.08
2023-02-09T17:10:25.467Z,31.25
2023-02-09T17:15:30.977Z,18.08
2023-02-09T17:20:37.198Z,28.83
2023-02-09T17:25:38.673Z,28.35
2023-02-09T17:30:40.276Z,22.58
2023-02-09T17:41:05.140Z,21.50
2023-02-09T17:46:07.914Z,10.18
2023-02-09T17:51:18.751Z,19.83
2023-02-09T17:56:20.224Z,17.23
2023-02-09T18:01:29.007Z,12.40
2023-02-09T18:06:35.223Z,11.00
2023-02-09T18:11:42.234Z,13.90
2023-02-09T18:16:44.157Z,18.95
2023-02-09T18:21:56.538Z,18.55
2023-02-09T18:26:58.004Z,16.17
2023-02-09T18:32:00.453Z,16.55
2023-02-09T18:37:01.948Z,22.35
2023-02-09T18:42:03.420Z,16.60
2023-02-09T18:47:05.679Z,15.90
2023-02-09T18:52:08.401Z,19.70
2023-02-09T18:57:09.855Z,16.42
2023-02-09T19:02:14.799Z,24.02
2023-02-09T19:07:16.966Z,12.68
2023-02-09T19:12:18.464Z,21.23
2023-02-09T19:17:20.563Z,17.83
2023-02-09T19:22:22.039Z,17.90
2023-02-09T19:27:24.283Z,21.25
2023-02-09T19:32:26.347Z,22.27
2023-02-09T19:37:27.818Z,22.10
2023-02-09T19:42:29.341Z,20.65
2023-02-09T19:47:30.808Z,13.77
2023-02-09T19:52:34.732Z,16.30
2023-02-09T19:57:36.201Z,24.50
2023-02-09T20:02:37.747Z,13.13
2023-02-09T20:07:39.243Z,20.33
2023-02-09T20:12:40.736Z,22.88
2023-02-09T20:17:42.265Z,20.38
2023-02-09T20:22:43.722Z,24.73
2023-02-09T20:27:47.597Z,20.50
2023-02-09T20:32:49.093Z,27.83
2023-02-09T20:37:52.766Z,19.20
2023-02-09T20:43:12.529Z,18.30
2023-02-09T20:48:14.129Z,17.50
2023-02-09T20:53:15.612Z,19.75
2023-02-09T20:58:17.420Z,20.60
2023-02-09T21:03:18.889Z,23.10
2023-02-09T21:08:21.439Z,22.00
2023-02-09T21:13:23.719Z,21.13
2023-02-09T21:18:25.288Z,17.02
2023-02-09T21:23:26.781Z,20.17
2023-02-09T21:28:28.358Z,22.63
2023-02-09T21:33:29.853Z,21.63
2023-02-09T21:38:31.338Z,25.17
2023-02-09T21:43:33.007Z,21.55
2023-02-09T21:48:34.473Z,24.38
2023-02-09T21:53:36.043Z,19.50
2023-02-09T21:58:37.511Z,19.50
2023-02-09T22:03:39.264Z,24.65
2023-02-09T22:08:41.506Z,31.73
2023-02-09T22:13:42.980Z,22.70
2023-02-09T22:18:44.430Z,21.02
2023-02-09T22:23:45.915Z,23.33
2023-02-09T22:28:47.378Z,24.00
2023-02-09T22:33:53.104Z,17.45
2023-02-09T22:38:54.571Z,26.42
2023-02-09T22:44:06.900Z,22.45
2023-02-09T22:49:14.276Z,15.57
2023-02-09T22:54:16.913Z,18.15
2023-02-09T22:59:18.370Z,21.88
2023-02-09T23:04:19.909Z,21.35
2023-02-09T23:09:21.447Z,15.88
2023-02-09T23:14:22.923Z,22.38
2023-02-09T23:19:24.395Z,21.80
2023-02-09T23:24:26.234Z,23.80
2023-02-09T23:29:28.059Z,28.30
2023-02-09T23:34:29.596Z,21.05
2023-02-09T23:39:31.092Z,24.77
2023-02-09T23:44:32.622Z,23.90
2023-02-09T23:49:34.134Z,29.00
2023-02-09T23:54:35.594Z,21.92
2023-02-09T23:59:37.071Z,22.02
